createdAt,value
2023-05-07T00:00:33.664Z,13.15
2023-05-07T00:03:15.116Z,13.16
2023-05-07T00:06:08.640Z,13.17
2023-05-07T00:08:48.955Z,13.15
2023-05-07T00:11:37.048Z,13.12
2023-05-07T00:14:17.010Z,13.06
2023-05-07T00:17:03.578Z,13.02
2023-05-07T00:19:50.633Z,13.00
2023-05-07T00:22:31.368Z,12.90
2023-05-07T00:25:18.634Z,12.86
2023-05-07T00:28:03.770Z,12.83
2023-05-07T00:30:50.645Z,12.85
2023-05-07T00:33:30.657Z,12.80
2023-05-07T00:36:17.565Z,12.77
2023-05-07T00:39:04.632Z,12.77
2023-05-07T00:41:51.577Z,12.72
2023-05-07T00:44:38.606Z,12.68
2023-05-07T00:47:25.758Z,12.68
2023-05-07T00:50:06.676Z,12.63
2023-05-07T00:52:53.609Z,12.57
2023-05-07T00:55:33.694Z,12.56
2023-05-07T00:58:20.826Z,12.50
2023-05-07T01:01:00.701Z,12.49
2023-05-07T01:03:47.561Z,12.41
2023-05-07T01:06:29.683Z,12.42
2023-05-07T01:09:16.519Z,12.42
2023-05-07T01:12:05.539Z,12.42
2023-05-07T01:14:46.135Z,12.41
2023-05-07T01:17:32.602Z,12.42
2023-05-07T01:20:21.568Z,12.44
2023-05-07T01:23:02.658Z,12.42
2023-05-07T01:25:49.559Z,12.43
2023-05-07T01:28:40.359Z,12.44
2023-05-07T01:31:28.582Z,12.45
2023-05-07T01:34:18.606Z,12.45
2023-05-07T01:37:07.481Z,12.45
2023-05-07T01:39:47.590Z,12.45
2023-05-07T01:42:34.500Z,12.42
2023-05-07T01:45:21.501Z,12.46
2023-05-07T01:48:03.253Z,12.44
2023-05-07T01:50:51.472Z,12.43
2023-05-07T01:53:44.467Z,12.45
2023-05-07T01:56:26.582Z,12.45
2023-05-07T01:59:13.448Z,12.46
2023-05-07T02:02:00.526Z,12.49
2023-05-07T02:04:48.464Z,12.47
2023-05-07T02:07:29.581Z,12.52
2023-05-07T02:10:17.486Z,12.49
2023-05-07T02:13:04.492Z,12.55
2023-05-07T02:15:51.760Z,12.53
2023-05-07T02:18:32.483Z,12.55
2023-05-07T02:21:12.829Z,12.53
2023-05-07T02:23:59.431Z,12.50
2023-05-07T02:26:41.227Z,12.50
2023-05-07T02:29:28.485Z,12.50
2023-05-07T02:32:15.574Z,12.47
2023-05-07T02:34:58.572Z,12.43
2023-05-07T02:37:45.424Z,12.42
2023-05-07T02:40:26.516Z,12.37
2023-05-07T02:43:13.425Z,12.38
2023-05-07T02:46:02.469Z,12.35
2023-05-07T02:48:45.847Z,12.33
2023-05-07T02:51:34.426Z,12.33
2023-05-07T02:54:19.062Z,12.32
2023-05-07T02:57:05.392Z,12.34
2023-05-07T02:59:45.717Z,12.36
2023-05-07T03:02:34.433Z,12.41
2023-05-07T03:05:15.542Z,12.40
2023-05-07T03:08:02.394Z,12.38
2023-05-07T03:10:49.401Z,12.42
2023-05-07T03:13:29.478Z,12.46
2023-05-07T03:16:16.368Z,12.49
2023-05-07T03:19:03.372Z,12.56
2023-05-07T03:21:43.768Z,12.57
2023-05-07T03:24:31.342Z,12.56
2023-05-07T03:27:25.359Z,12.60
2023-05-07T03:30:07.956Z,12.61
2023-05-07T03:32:55.345Z,12.63
2023-05-07T03:35:35.375Z,12.68
2023-05-07T03:38:15.734Z,12.77
2023-05-07T03:41:02.341Z,12.80
2023-05-07T03:43:42.800Z,12.89
2023-05-07T03:46:29.465Z,12.93
2023-05-07T03:49:09.730Z,13.03
2023-05-07T03:51:56.302Z,13.15
2023-05-07T03:54:37.758Z,13.33
2023-05-07T03:57:26.354Z,13.68
2023-05-07T04:00:14.374Z,13.94
2023-05-07T04:02:54.493Z,14.04
2023-05-07T04:05:44.364Z,14.19
2023-05-07T04:08:24.389Z,14.47
2023-05-07T04:11:12.287Z,14.55
2023-05-07T04:13:52.447Z,14.76
2023-05-07T04:16:39.357Z,14.92
2023-05-07T04:19:20.430Z,15.05
2023-05-07T04:22:08.289Z,15.23
2023-05-07T04:24:55.284Z,15.36
2023-05-07T04:27:36.111Z,15.57
2023-05-07T04:30:23.272Z,15.53
2023-05-07T04:33:03.933Z,15.90
2023-05-07T04:35:51.280Z,16.03
2023-05-07T04:38:39.259Z,16.51
2023-05-07T04:41:27.295Z,16.69
2023-05-07T04:44:14.309Z,16.53
2023-05-07T04:47:02.255Z,16.33
2023-05-07T04:49:49.389Z,16.45
2023-05-07T04:52:29.293Z,16.84
2023-05-07T04:55:09.934Z,16.71
2023-05-07T04:57:56.288Z,16.77
2023-05-07T05:00:40.595Z,17.09
2023-05-07T05:03:27.372Z,17.04
2023-05-07T05:06:07.717Z,16.86
2023-05-07T05:08:54.284Z,17.13
2023-05-07T05:11:36.618Z,17.33
2023-05-07T05:14:23.206Z,17.64
2023-05-07T05:17:10.279Z,18.36
2023-05-07T05:19:50.869Z,19.15
2023-05-07T05:22:39.244Z,18.99
2023-05-07T05:25:20.376Z,19.27
2023-05-07T05:28:07.258Z,19.33
2023-05-07T05:30:54.231Z,19.64
2023-05-07T05:33:38.597Z,20.76
2023-05-07T05:36:26.226Z,21.05
2023-05-07T05:39:07.072Z,21.06
2023-05-07T05:41:55.220Z,20.82
2023-05-07T05:44:35.674Z,21.06
2023-05-07T05:47:22.238Z,21.26
2023-05-07T05:50:03.726Z,21.85
2023-05-07T05:52:51.170Z,22.49
2023-05-07T05:55:33.528Z,22.47
2023-05-07T05:58:20.201Z,23.59
2023-05-07T06:01:06.353Z,23.21
2023-05-07T06:03:53.196Z,23.60
2023-05-07T06:06:40.242Z,24.52
2023-05-07T06:09:21.232Z,25.59
2023-05-07T06:12:08.234Z,24.94
2023-05-07T06:14:51.148Z,24.61
2023-05-07T06:17:38.194Z,24.77
2023-05-07T06:20:25.200Z,23.85
2023-05-07T06:23:07.627Z,25.32
2023-05-07T06:25:54.157Z,24.73
2023-05-07T06:28:46.162Z,25.22
2023-05-07T06:31:34.209Z,26.42
2023-05-07T06:34:15.544Z,25.88
2023-05-07T06:37:02.137Z,26.20
2023-05-07T06:40:16.169Z,27.00
2023-05-07T06:43:03.241Z,28.60
2023-05-07T06:45:54.188Z,28.37
2023-05-07T06:48:34.510Z,27.81
2023-05-07T06:51:21.132Z,28.82
2023-05-07T06:54:01.586Z,27.83
2023-05-07T06:56:51.153Z,28.09
2023-05-07T06:59:33.768Z,27.83
2023-05-07T07:02:21.113Z,29.55
2023-05-07T07:05:01.560Z,29.83
2023-05-07T07:07:48.147Z,29.28
2023-05-07T07:10:35.154Z,27.05
2023-05-07T07:13:15.348Z,26.84
2023-05-07T07:16:02.153Z,28.77
2023-05-07T07:18:42.194Z,29.96
2023-05-07T07:21:29.133Z,29.70
2023-05-07T07:24:09.228Z,28.70
2023-05-07T07:40:43.758Z,30.54
2023-05-07T07:43:30.849Z,28.69
2023-05-07T07:46:18.872Z,30.84
2023-05-07T07:49:01.094Z,30.80
2023-05-07T07:51:48.779Z,29.27
2023-05-07T07:54:30.360Z,28.02
2023-05-07T07:57:17.762Z,29.54
2023-05-07T07:59:58.180Z,30.35
2023-05-07T08:02:45.908Z,31.52
2023-05-07T08:05:32.171Z,30.12
2023-05-07T08:08:20.780Z,29.68
2023-05-07T08:11:02.234Z,31.39
2023-05-07T08:13:50.794Z,29.03
2023-05-07T08:16:31.313Z,27.50
2023-05-07T08:19:17.768Z,28.89
2023-05-07T08:21:58.179Z,28.27
2023-05-07T08:24:44.737Z,27.02
2023-05-07T08:27:25.114Z,28.49
2023-05-07T08:30:11.996Z,27.54
2023-05-07T08:32:58.868Z,28.98
2023-05-07T08:35:45.795Z,29.15
2023-05-07T08:38:39.773Z,28.46
2023-05-07T08:41:26.810Z,28.61
2023-05-07T08:44:10.698Z,29.03
2023-05-07T08:46:55.462Z,28.65
2023-05-07T08:49:44.736Z,27.92
2023-05-07T08:52:25.503Z,28.45
2023-05-07T08:55:13.973Z,28.36
2023-05-07T08:58:00.883Z,28.59
2023-05-07T09:00:45.788Z,27.99
2023-05-07T09:03:32.772Z,29.49
2023-05-07T09:06:13.791Z,30.73
2023-05-07T09:09:02.745Z,29.65
2023-05-07T09:11:49.698Z,28.32
2023-05-07T09:14:30.147Z,27.58
2023-05-07T09:17:17.708Z,26.46
2023-05-07T09:20:02.804Z,28.57
2023-05-07T09:22:53.737Z,30.70
2023-05-07T09:25:42.680Z,30.07
2023-05-07T09:28:29.862Z,29.68
2023-05-07T09:31:20.342Z,29.34
2023-05-07T09:34:01.884Z,26.40
2023-05-07T09:36:50.676Z,27.65
2023-05-07T09:40:01.690Z,26.68
2023-05-07T09:42:42.278Z,25.90
2023-05-07T09:45:28.759Z,27.95
2023-05-07T09:48:09.736Z,28.92
2023-05-07T09:51:05.619Z,28.23
2023-05-07T09:53:47.354Z,28.21
2023-05-07T09:56:35.651Z,29.74
2023-05-07T09:59:24.640Z,29.43
2023-05-07T10:02:15.725Z,28.28
2023-05-07T10:05:07.710Z,27.18
2023-05-07T10:07:48.886Z,26.95
2023-05-07T10:10:38.670Z,27.06
2023-05-07T10:13:25.911Z,28.75
2023-05-07T10:16:13.639Z,28.60
2023-05-07T10:18:56.117Z,28.59
2023-05-07T10:21:44.637Z,25.60
2023-05-07T10:24:29.721Z,25.63
2023-05-07T10:27:19.623Z,26.09
2023-05-07T10:30:11.728Z,25.79
2023-05-07T10:33:02.686Z,25.15
2023-05-07T10:35:51.707Z,24.51
2023-05-07T10:38:38.624Z,23.64
2023-05-07T10:41:19.806Z,24.08
2023-05-07T10:44:09.589Z,23.23
2023-05-07T10:46:49.671Z,24.16
2023-05-07T10:49:36.598Z,24.13
2023-05-07T10:52:27.997Z,24.27
2023-05-07T10:55:32.568Z,24.38
2023-05-07T10:58:42.594Z,24.73
2023-05-07T11:01:54.519Z,22.93
2023-05-07T11:04:51.639Z,24.32
2023-05-07T11:07:36.986Z,24.80
2023-05-07T11:10:28.602Z,25.19
2023-05-07T11:13:25.606Z,24.99
2023-05-07T11:16:13.598Z,24.17
2023-05-07T11:18:57.717Z,24.20
2023-05-07T11:21:55.603Z,23.33
2023-05-07T11:25:07.630Z,22.09
2023-05-07T11:27:48.737Z,22.71
2023-05-07T11:30:37.594Z,20.05
2023-05-07T11:33:34.520Z,18.13
2023-05-07T11:36:26.597Z,16.98
2023-05-07T11:39:09.631Z,16.68
2023-05-07T11:41:58.549Z,16.32
2023-05-07T11:44:51.762Z,15.81
2023-05-07T11:47:38.621Z,15.66
2023-05-07T11:50:18.672Z,15.81
2023-05-07T11:53:05.534Z,15.89
2023-05-07T11:55:52.547Z,15.78
2023-05-07T11:58:39.625Z,15.83
2023-05-07T12:01:21.542Z,15.91
2023-05-07T12:04:04.730Z,16.23
2023-05-07T12:06:51.556Z,16.25
2023-05-07T12:09:41.511Z,16.46
2023-05-07T12:12:21.607Z,16.62
2023-05-07T12:15:01.534Z,16.60
2023-05-07T12:17:48.664Z,16.46
2023-05-07T12:20:28.634Z,16.41
2023-05-07T12:23:15.553Z,16.03
2023-05-07T12:26:05.764Z,15.63
2023-05-07T12:28:47.318Z,15.07
2023-05-07T12:31:34.596Z,14.56
2023-05-07T12:34:21.531Z,14.52
2023-05-07T12:37:08.531Z,14.52
2023-05-07T12:40:02.573Z,14.42
2023-05-07T12:42:43.568Z,14.44
2023-05-07T12:45:30.487Z,14.62
2023-05-07T12:48:18.525Z,14.64
2023-05-07T12:51:00.739Z,14.70
2023-05-07T12:53:50.460Z,14.57
2023-05-07T12:56:30.630Z,14.61
2023-05-07T12:59:17.442Z,14.65
2023-05-07T13:01:57.662Z,14.61
2023-05-07T13:04:44.462Z,14.57
2023-05-07T13:07:24.591Z,14.79
2023-05-07T13:10:12.453Z,14.60
2023-05-07T13:12:59.456Z,14.36
2023-05-07T13:15:46.632Z,14.21
2023-05-07T13:18:33.594Z,14.33
2023-05-07T13:21:14.384Z,14.56
2023-05-07T13:24:01.438Z,14.60
2023-05-07T13:26:48.428Z,14.69
2023-05-07T13:29:38.457Z,14.86
2023-05-07T13:32:18.971Z,14.69
2023-05-07T13:35:05.454Z,14.59
2023-05-07T13:37:45.970Z,14.72
2023-05-07T13:40:33.419Z,14.69
2023-05-07T13:43:13.837Z,14.78
2023-05-07T13:46:00.480Z,15.01
2023-05-07T13:48:47.398Z,14.95
2023-05-07T13:51:34.403Z,15.03
2023-05-07T13:54:14.734Z,14.98
2023-05-07T13:57:01.424Z,14.96
2023-05-07T13:59:48.393Z,14.85
2023-05-07T14:02:28.714Z,14.94
2023-05-07T14:05:17.425Z,14.74
2023-05-07T14:08:01.478Z,14.67
2023-05-07T14:10:48.414Z,14.71
2023-05-07T14:13:28.681Z,14.52
2023-05-07T14:16:15.389Z,14.61
2023-05-07T14:18:58.146Z,14.49
2023-05-07T14:21:45.330Z,14.53
2023-05-07T14:24:37.686Z,14.58
2023-05-07T14:27:25.559Z,14.54
2023-05-07T14:30:05.576Z,14.54
2023-05-07T14:32:52.374Z,14.62
2023-05-07T14:35:32.442Z,14.49
2023-05-07T14:38:19.329Z,14.52
2023-05-07T14:41:06.498Z,14.30
2023-05-07T14:43:46.345Z,14.39
2023-05-07T14:46:33.384Z,14.22
2023-05-07T14:49:18.075Z,14.22
2023-05-07T14:52:07.341Z,14.01
2023-05-07T14:54:54.309Z,14.17
2023-05-07T14:57:35.971Z,14.20
2023-05-07T15:00:23.354Z,14.16
2023-05-07T15:03:11.315Z,14.19
2023-05-07T15:05:59.324Z,14.05
2023-05-07T15:08:39.670Z,13.89
2023-05-07T15:11:26.428Z,13.87
2023-05-07T15:14:06.820Z,13.93
2023-05-07T15:16:53.305Z,13.81
2023-05-07T15:19:33.787Z,13.78
2023-05-07T15:22:20.309Z,13.79
2023-05-07T15:25:01.066Z,13.73
2023-05-07T15:27:48.246Z,13.70
2023-05-07T15:30:35.255Z,13.48
2023-05-07T15:33:15.698Z,13.47
2023-05-07T15:36:06.290Z,13.37
2023-05-07T15:38:46.384Z,13.37
2023-05-07T15:41:33.301Z,13.38
2023-05-07T15:44:13.429Z,13.36
2023-05-07T15:47:00.290Z,13.28
2023-05-07T15:49:40.351Z,13.28
2023-05-07T15:52:28.304Z,13.32
2023-05-07T15:55:09.442Z,13.24
2023-05-07T15:57:56.253Z,13.27
2023-05-07T16:00:43.268Z,13.08
2023-05-07T16:03:30.392Z,13.01
2023-05-07T16:06:19.232Z,12.88
2023-05-07T16:08:59.704Z,12.87
2023-05-07T16:11:46.278Z,12.87
2023-05-07T16:14:33.212Z,12.82
2023-05-07T16:17:13.423Z,12.70
2023-05-07T16:20:00.481Z,12.57
2023-05-07T16:22:40.331Z,12.64
2023-05-07T16:25:27.199Z,12.54
2023-05-07T16:28:07.992Z,12.54
2023-05-07T16:30:55.196Z,12.41
2023-05-07T16:33:35.395Z,12.43
2023-05-07T16:36:22.196Z,12.50
2023-05-07T16:39:09.199Z,12.48
2023-05-07T16:41:56.264Z,12.36
2023-05-07T16:44:36.191Z,12.34
2023-05-07T16:47:23.330Z,12.36
2023-05-07T16:50:05.925Z,12.33
2023-05-07T16:52:53.164Z,12.26
2023-05-07T16:55:38.817Z,12.26
2023-05-07T16:58:26.139Z,12.23
2023-05-07T17:01:07.261Z,12.28
2023-05-07T17:03:54.245Z,12.15
2023-05-07T17:06:34.287Z,12.18
2023-05-07T17:09:21.244Z,12.20
2023-05-07T17:12:08.202Z,12.22
2023-05-07T17:14:48.586Z,12.11
2023-05-07T17:17:35.236Z,12.09
2023-05-07T17:20:22.165Z,12.10
2023-05-07T17:23:09.177Z,12.10
2023-05-07T17:25:49.543Z,12.02
2023-05-07T17:28:36.117Z,12.01
2023-05-07T17:31:23.231Z,12.00
2023-05-07T17:34:03.376Z,12.00
2023-05-07T17:36:50.161Z,11.94
2023-05-07T17:42:45.159Z,11.89
2023-05-07T17:45:25.332Z,11.91
2023-05-07T17:48:12.229Z,11.89
2023-05-07T17:50:52.260Z,11.84
2023-05-07T17:53:39.065Z,11.89
2023-05-07T17:56:19.209Z,11.93
2023-05-07T17:59:06.111Z,11.81
2023-05-07T18:01:46.281Z,11.82
2023-05-07T18:04:35.074Z,11.80
2023-05-07T18:07:15.383Z,11.81
2023-05-07T18:10:02.089Z,11.79
2023-05-07T18:12:49.201Z,11.77
2023-05-07T18:15:29.460Z,11.76
2023-05-07T18:18:16.193Z,11.79
2023-05-07T18:20:57.664Z,11.84
2023-05-07T18:23:44.073Z,11.83
2023-05-07T18:26:24.535Z,11.75
2023-05-07T18:29:11.105Z,11.70
2023-05-07T18:31:51.576Z,11.78
2023-05-07T18:34:38.049Z,11.76
2023-05-07T18:37:18.716Z,11.73
2023-05-07T18:40:05.090Z,11.71
2023-05-07T18:42:52.141Z,11.70
2023-05-07T18:45:32.016Z,11.69
2023-05-07T18:48:12.418Z,11.67
2023-05-07T18:50:58.989Z,11.69
2023-05-07T18:53:40.329Z,11.67
2023-05-07T18:56:27.062Z,11.70
2023-05-07T18:59:07.653Z,11.76
2023-05-07T19:01:54.115Z,11.73
2023-05-07T19:04:34.484Z,11.68
2023-05-07T19:07:21.042Z,11.68
2023-05-07T19:10:05.479Z,11.68
2023-05-07T19:12:53.035Z,11.64
2023-05-07T19:15:33.386Z,11.47
2023-05-07T19:18:20.032Z,11.58
2023-05-07T19:21:07.993Z,11.46
2023-05-07T19:23:51.168Z,11.45
2023-05-07T19:26:37.970Z,11.46
2023-05-07T19:42:04.032Z,10.90
2023-05-07T19:44:51.000Z,10.95
2023-05-07T19:47:38.044Z,11.00
2023-05-07T19:50:24.959Z,11.09
2023-05-07T19:53:05.098Z,11.14
2023-05-07T19:55:52.857Z,11.16
2023-05-07T19:58:34.173Z,11.22
2023-05-07T20:01:20.977Z,11.28
2023-05-07T20:04:08.075Z,11.23
2023-05-07T20:06:54.994Z,11.29
2023-05-07T20:09:35.149Z,11.21
2023-05-07T20:12:22.048Z,11.18
2023-05-07T20:15:02.039Z,11.24
2023-05-07T20:17:49.205Z,11.17
2023-05-07T20:20:29.125Z,11.12
2023-05-07T20:23:15.945Z,11.21
2023-05-07T20:25:56.090Z,11.29
2023-05-07T20:28:42.906Z,11.19
2023-05-07T20:31:23.145Z,11.25
2023-05-07T20:34:09.945Z,11.22
2023-05-07T20:36:50.026Z,11.24
2023-05-07T20:39:36.944Z,11.22
2023-05-07T20:42:24.050Z,11.36
2023-05-07T20:45:04.337Z,11.32
2023-05-07T20:47:51.062Z,11.33
2023-05-07T20:50:32.914Z,11.24
2023-05-07T20:53:13.266Z,11.19
2023-05-07T20:55:59.929Z,11.14
2023-05-07T20:58:53.903Z,11.15
2023-05-07T21:01:40.965Z,11.27
2023-05-07T21:04:21.453Z,11.17
2023-05-07T21:07:07.900Z,11.24
2023-05-07T21:09:48.137Z,11.29
2023-05-07T21:12:34.868Z,11.21
2023-05-07T21:15:16.026Z,11.21
2023-05-07T21:18:02.916Z,11.27
2023-05-07T21:20:42.957Z,11.17
2023-05-07T21:23:29.890Z,11.13
2023-05-07T21:26:10.912Z,11.09
2023-05-07T21:28:57.934Z,10.97
2023-05-07T21:31:44.858Z,10.94
2023-05-07T21:34:25.330Z,10.89
2023-05-07T21:37:11.843Z,10.94
2023-05-07T21:40:05.859Z,10.90
2023-05-07T21:42:46.253Z,10.91
2023-05-07T21:45:32.822Z,10.89
2023-05-07T21:48:14.195Z,10.91
2023-05-07T21:51:00.846Z,10.72
2023-05-07T21:53:47.805Z,10.74
2023-05-07T21:56:27.903Z,10.65
2023-05-07T21:59:14.865Z,10.64
2023-05-07T22:01:54.948Z,10.53
2023-05-07T22:04:41.795Z,10.47
2023-05-07T22:07:21.867Z,10.46
2023-05-07T22:10:08.762Z,10.47
2023-05-07T22:12:48.971Z,10.52
2023-05-07T22:15:42.325Z,10.49
2023-05-07T22:18:25.993Z,10.44
2023-05-07T22:21:12.847Z,10.43
2023-05-07T22:23:52.924Z,10.38
2023-05-07T22:26:40.801Z,10.29
2023-05-07T22:29:23.351Z,10.25
2023-05-07T22:32:12.495Z,10.15
2023-05-07T22:34:52.930Z,10.25
2023-05-07T22:37:39.801Z,10.20
2023-05-07T22:40:19.856Z,10.19
2023-05-07T22:43:06.902Z,10.18
2023-05-07T22:45:46.891Z,10.23
2023-05-07T22:48:27.729Z,10.18
2023-05-07T22:51:20.741Z,10.13
2023-05-07T22:54:00.912Z,10.08
2023-05-07T22:56:47.786Z,10.01
2023-05-07T22:59:27.823Z,9.97
2023-05-07T23:02:14.819Z,9.90
2023-05-07T23:04:54.809Z,9.95
2023-05-07T23:07:41.735Z,9.96
2023-05-07T23:10:21.808Z,9.88
2023-05-07T23:13:09.797Z,9.83
2023-05-07T23:15:50.967Z,9.77
2023-05-07T23:18:38.704Z,9.82
2023-05-07T23:21:18.808Z,9.83
2023-05-07T23:24:05.706Z,9.76
2023-05-07T23:26:52.761Z,9.76
2023-05-07T23:29:33.641Z,9.68
2023-05-07T23:32:20.772Z,9.74
2023-05-07T23:35:01.151Z,9.66
2023-05-07T23:37:47.698Z,9.63
2023-05-07T23:40:34.727Z,9.62
2023-05-07T23:43:14.802Z,9.58
2023-05-07T23:46:01.779Z,9.58
2023-05-07T23:48:41.743Z,9.47
2023-05-07T23:51:28.683Z,9.49
2023-05-07T23:54:15.738Z,9.46
2023-05-07T23:56:56.293Z,9.47
2023-05-07T23:59:42.758Z,9.40
